sensor_id;sensor_type;location;lat;lon;timestamp;temperature;humidity
75500;DHT22;64076;51.466;7.260;2023-10-19T00:00:46;23.40;40.40
75500;DHT22;64076;51.466;7.260;2023-10-19T00:03:15;23.40;40.40
75500;DHT22;64076;51.466;7.260;2023-10-19T00:05:41;23.40;40.40
75500;DHT22;64076;51.466;7.260;2023-10-19T00:08:11;23.40;40.40
75500;DHT22;64076;51.466;7.260;2023-10-19T00:10:45;23.40;40.50
75500;DHT22;64076;51.466;7.260;2023-10-19T00:13:14;23.40;40.60
75500;DHT22;64076;51.466;7.260;2023-10-19T00:15:41;23.40;40.60
75500;DHT22;64076;51.466;7.260;2023-10-19T00:18:12;23.40;40.50
75500;DHT22;64076;51.466;7.260;2023-10-19T00:20:41;23.40;40.70
75500;DHT22;64076;51.466;7.260;2023-10-19T00:23:06;23.40;40.70
75500;DHT22;64076;51.466;7.260;2023-10-19T00:25:32;23.40;40.70
75500;DHT22;64076;51.466;7.260;2023-10-19T00:28:00;23.40;40.70
75500;DHT22;64076;51.466;7.260;2023-10-19T00:30:29;23.40;40.60
75500;DHT22;64076;51.466;7.260;2023-10-19T00:33:01;23.40;40.80
75500;DHT22;64076;51.466;7.260;2023-10-19T00:35:30;23.40;40.90
75500;DHT22;64076;51.466;7.260;2023-10-19T00:38:07;23.40;40.90
75500;DHT22;64076;51.466;7.260;2023-10-19T00:40:52;23.40;40.90
75500;DHT22;64076;51.466;7.260;2023-10-19T00:43:31;23.40;41.00
75500;DHT22;64076;51.466;7.260;2023-10-19T00:46:03;23.40;41.00
75500;DHT22;64076;51.466;7.260;2023-10-19T00:49:02;23.40;41.10
75500;DHT22;64076;51.466;7.260;2023-10-19T00:51:37;23.40;41.20
75500;DHT22;64076;51.466;7.260;2023-10-19T00:54:17;23.40;41.10
75500;DHT22;64076;51.466;7.260;2023-10-19T00:56:51;23.40;41.20
75500;DHT22;64076;51.466;7.260;2023-10-19T00:59:19;23.40;41.20
75500;DHT22;64076;51.466;7.260;2023-10-19T01:01:53;23.40;41.40
75500;DHT22;64076;51.466;7.260;2023-10-19T01:04:30;23.40;41.50
75500;DHT22;64076;51.466;7.260;2023-10-19T01:07:00;23.40;41.50
75500;DHT22;64076;51.466;7.260;2023-10-19T01:09:37;23.40;41.40
75500;DHT22;64076;51.466;7.260;2023-10-19T01:12:04;23.40;41.30
75500;DHT22;64076;51.466;7.260;2023-10-19T01:15:15;23.40;41.60
75500;DHT22;64076;51.466;7.260;2023-10-19T01:17:55;23.40;41.60
75500;DHT22;64076;51.466;7.260;2023-10-19T01:20:25;23.40;41.60
75500;DHT22;64076;51.466;7.260;2023-10-19T01:22:58;23.40;41.60
75500;DHT22;64076;51.466;7.260;2023-10-19T01:28:20;23.40;41.60
75500;DHT22;64076;51.466;7.260;2023-10-19T01:30:47;23.40;41.70
75500;DHT22;64076;51.466;7.260;2023-10-19T01:33:17;23.40;41.60
75500;DHT22;64076;51.466;7.260;2023-10-19T01:35:44;23.40;41.70
75500;DHT22;64076;51.466;7.260;2023-10-19T01:38:29;23.40;41.80
75500;DHT22;64076;51.466;7.260;2023-10-19T01:41:05;23.40;41.70
75500;DHT22;64076;51.466;7.260;2023-10-19T01:43:41;23.40;41.50
75500;DHT22;64076;51.466;7.260;2023-10-19T01:46:08;23.40;41.60
75500;DHT22;64076;51.466;7.260;2023-10-19T01:48:42;23.40;41.60
75500;DHT22;64076;51.466;7.260;2023-10-19T01:51:09;23.40;41.60
75500;DHT22;64076;51.466;7.260;2023-10-19T01:53:39;23.40;41.60
75500;DHT22;64076;51.466;7.260;2023-10-19T01:56:06;23.40;41.70
75500;DHT22;64076;51.466;7.260;2023-10-19T01:58:37;23.40;41.70
75500;DHT22;64076;51.466;7.260;2023-10-19T02:01:05;23.50;41.60
75500;DHT22;64076;51.466;7.260;2023-10-19T02:03:34;23.40;41.70
75500;DHT22;64076;51.466;7.260;2023-10-19T02:06:01;23.40;41.70
75500;DHT22;64076;51.466;7.260;2023-10-19T02:08:36;23.50;41.80
75500;DHT22;64076;51.466;7.260;2023-10-19T02:11:05;23.50;41.80
75500;DHT22;64076;51.466;7.260;2023-10-19T02:13:39;23.50;41.90
75500;DHT22;64076;51.466;7.260;2023-10-19T02:16:05;23.40;42.00
75500;DHT22;64076;51.466;7.260;2023-10-19T02:18:32;23.40;41.80
75500;DHT22;64076;51.466;7.260;2023-10-19T02:21:00;23.50;42.20
75500;DHT22;64076;51.466;7.260;2023-10-19T02:23:28;23.50;41.90
75500;DHT22;64076;51.466;7.260;2023-10-19T02:25:54;23.50;41.90
75500;DHT22;64076;51.466;7.260;2023-10-19T02:28:19;23.50;42.00
75500;DHT22;64076;51.466;7.260;2023-10-19T02:30:54;23.50;42.20
75500;DHT22;64076;51.466;7.260;2023-10-19T02:33:20;23.50;42.10
75500;DHT22;64076;51.466;7.260;2023-10-19T02:35:48;23.50;42.20
75500;DHT22;64076;51.466;7.260;2023-10-19T02:38:14;23.50;42.20
75500;DHT22;64076;51.466;7.260;2023-10-19T02:40:39;23.50;42.20
75500;DHT22;64076;51.466;7.260;2023-10-19T02:43:05;23.50;42.20
75500;DHT22;64076;51.466;7.260;2023-10-19T02:45:31;23.50;42.20
75500;DHT22;64076;51.466;7.260;2023-10-19T02:47:58;23.50;42.20
75500;DHT22;64076;51.466;7.260;2023-10-19T02:50:24;23.50;42.30
75500;DHT22;64076;51.466;7.260;2023-10-19T02:52:52;23.50;42.30
75500;DHT22;64076;51.466;7.260;2023-10-19T02:55:18;23.50;42.30
75500;DHT22;64076;51.466;7.260;2023-10-19T02:57:48;23.50;42.30
75500;DHT22;64076;51.466;7.260;2023-10-19T03:00:15;23.50;42.40
75500;DHT22;64076;51.466;7.260;2023-10-19T03:02:45;23.50;42.40
75500;DHT22;64076;51.466;7.260;2023-10-19T03:05:11;23.50;42.40
75500;DHT22;64076;51.466;7.260;2023-10-19T03:07:41;23.50;42.40
75500;DHT22;64076;51.466;7.260;2023-10-19T03:10:09;23.50;42.40
75500;DHT22;64076;51.466;7.260;2023-10-19T03:12:48;23.50;42.40
75500;DHT22;64076;51.466;7.260;2023-10-19T03:15:15;23.50;42.40
75500;DHT22;64076;51.466;7.260;2023-10-19T03:17:41;23.50;42.40
75500;DHT22;64076;51.466;7.260;2023-10-19T03:20:07;23.50;42.40
75500;DHT22;64076;51.466;7.260;2023-10-19T03:22:32;23.50;42.40
75500;DHT22;64076;51.466;7.260;2023-10-19T03:24:59;23.50;42.40
75500;DHT22;64076;51.466;7.260;2023-10-19T03:27:43;23.50;42.40
75500;DHT22;64076;51.466;7.260;2023-10-19T03:30:10;23.50;42.40
75500;DHT22;64076;51.466;7.260;2023-10-19T03:32:40;23.50;42.40
75500;DHT22;64076;51.466;7.260;2023-10-19T03:35:06;23.50;42.40
75500;DHT22;64076;51.466;7.260;2023-10-19T03:37:34;23.50;42.40
75500;DHT22;64076;51.466;7.260;2023-10-19T03:40:01;23.50;42.50
75500;DHT22;64076;51.466;7.260;2023-10-19T03:42:32;23.50;42.50
75500;DHT22;64076;51.466;7.260;2023-10-19T03:44:59;23.50;42.50
75500;DHT22;64076;51.466;7.260;2023-10-19T03:47:27;23.50;42.60
75500;DHT22;64076;51.466;7.260;2023-10-19T03:50:04;23.50;42.60
75500;DHT22;64076;51.466;7.260;2023-10-19T03:52:36;23.50;42.60
75500;DHT22;64076;51.466;7.260;2023-10-19T03:55:05;23.50;42.60
75500;DHT22;64076;51.466;7.260;2023-10-19T03:57:37;23.60;42.70
75500;DHT22;64076;51.466;7.260;2023-10-19T04:00:07;23.50;42.70
75500;DHT22;64076;51.466;7.260;2023-10-19T04:02:40;23.50;42.80
75500;DHT22;64076;51.466;7.260;2023-10-19T04:05:08;23.50;42.90
75500;DHT22;64076;51.466;7.260;2023-10-19T04:07:35;23.50;43.00
75500;DHT22;64076;51.466;7.260;2023-10-19T04:10:01;23.50;42.90
75500;DHT22;64076;51.466;7.260;2023-10-19T04:12:33;23.50;43.00
75500;DHT22;64076;51.466;7.260;2023-10-19T04:15:01;23.50;42.90
75500;DHT22;64076;51.466;7.260;2023-10-19T04:17:43;23.50;43.00
75500;DHT22;64076;51.466;7.260;2023-10-19T04:20:10;23.50;43.00
75500;DHT22;64076;51.466;7.260;2023-10-19T04:22:46;23.50;43.00
75500;DHT22;64076;51.466;7.260;2023-10-19T04:25:13;23.50;43.10
75500;DHT22;64076;51.466;7.260;2023-10-19T04:27:39;23.50;43.10
75500;DHT22;64076;51.466;7.260;2023-10-19T04:30:08;23.50;43.10
75500;DHT22;64076;51.466;7.260;2023-10-19T04:32:41;23.50;43.20
75500;DHT22;64076;51.466;7.260;2023-10-19T04:35:07;23.50;43.10
75500;DHT22;64076;51.466;7.260;2023-10-19T04:37:35;23.60;43.20
75500;DHT22;64076;51.466;7.260;2023-10-19T04:40:00;23.60;43.20
75500;DHT22;64076;51.466;7.260;2023-10-19T04:42:26;23.50;43.10
75500;DHT22;64076;51.466;7.260;2023-10-19T04:44:54;23.50;43.20
75500;DHT22;64076;51.466;7.260;2023-10-19T04:47:22;23.60;43.10
75500;DHT22;64076;51.466;7.260;2023-10-19T04:49:48;23.60;43.20
75500;DHT22;64076;51.466;7.260;2023-10-19T04:52:14;23.50;43.20
75500;DHT22;64076;51.466;7.260;2023-10-19T04:54:39;23.50;43.20
75500;DHT22;64076;51.466;7.260;2023-10-19T04:57:05;23.60;43.30
75500;DHT22;64076;51.466;7.260;2023-10-19T04:59:30;23.60;43.30
75500;DHT22;64076;51.466;7.260;2023-10-19T05:01:59;23.50;43.20
75500;DHT22;64076;51.466;7.260;2023-10-19T05:04:27;23.50;43.20
75500;DHT22;64076;51.466;7.260;2023-10-19T05:06:53;23.60;43.20
75500;DHT22;64076;51.466;7.260;2023-10-19T05:09:18;23.50;43.20
75500;DHT22;64076;51.466;7.260;2023-10-19T05:11:44;23.60;43.40
75500;DHT22;64076;51.466;7.260;2023-10-19T05:14:12;23.60;43.30
75500;DHT22;64076;51.466;7.260;2023-10-19T05:16:39;23.60;43.40
75500;DHT22;64076;51.466;7.260;2023-10-19T05:19:05;23.60;44.40
75500;DHT22;64076;51.466;7.260;2023-10-19T05:21:31;23.70;44.60
75500;DHT22;64076;51.466;7.260;2023-10-19T05:23:56;23.70;44.60
75500;DHT22;64076;51.466;7.260;2023-10-19T05:26:22;23.60;44.90
75500;DHT22;64076;51.466;7.260;2023-10-19T05:28:48;23.60;45.00
75500;DHT22;64076;51.466;7.260;2023-10-19T05:31:13;23.70;45.20
75500;DHT22;64076;51.466;7.260;2023-10-19T05:33:40;23.70;45.50
75500;DHT22;64076;51.466;7.260;2023-10-19T05:36:06;23.70;45.60
75500;DHT22;64076;51.466;7.260;2023-10-19T05:38:32;23.70;45.60
75500;DHT22;64076;51.466;7.260;2023-10-19T05:40:58;23.70;45.70
75500;DHT22;64076;51.466;7.260;2023-10-19T05:43:25;23.70;45.90
75500;DHT22;64076;51.466;7.260;2023-10-19T05:45:50;23.70;46.00
75500;DHT22;64076;51.466;7.260;2023-10-19T05:48:20;23.70;46.00
75500;DHT22;64076;51.466;7.260;2023-10-19T05:50:45;23.80;46.10
75500;DHT22;64076;51.466;7.260;2023-10-19T05:53:11;23.80;46.10
75500;DHT22;64076;51.466;7.260;2023-10-19T05:55:37;23.80;46.30
75500;DHT22;64076;51.466;7.260;2023-10-19T05:58:04;23.80;46.30
75500;DHT22;64076;51.466;7.260;2023-10-19T06:00:30;23.80;46.30
75500;DHT22;64076;51.466;7.260;2023-10-19T06:02:56;23.80;46.30
75500;DHT22;64076;51.466;7.260;2023-10-19T06:05:23;23.80;46.40
75500;DHT22;64076;51.466;7.260;2023-10-19T06:07:49;23.90;46.50
75500;DHT22;64076;51.466;7.260;2023-10-19T06:10:20;23.90;46.50
75500;DHT22;64076;51.466;7.260;2023-10-19T06:12:49;23.90;46.50
75500;DHT22;64076;51.466;7.260;2023-10-19T06:15:16;23.90;46.50
75500;DHT22;64076;51.466;7.260;2023-10-19T06:17:42;23.90;46.60
75500;DHT22;64076;51.466;7.260;2023-10-19T06:20:10;23.90;46.50
75500;DHT22;64076;51.466;7.260;2023-10-19T06:22:56;23.90;46.60
75500;DHT22;64076;51.466;7.260;2023-10-19T06:25:26;23.90;46.60
75500;DHT22;64076;51.466;7.260;2023-10-19T06:27:52;23.90;46.70
75500;DHT22;64076;51.466;7.260;2023-10-19T06:30:19;23.90;46.70
75500;DHT22;64076;51.466;7.260;2023-10-19T06:32:52;23.90;46.80
75500;DHT22;64076;51.466;7.260;2023-10-19T06:35:19;23.90;46.80
75500;DHT22;64076;51.466;7.260;2023-10-19T06:37:46;23.90;46.80
75500;DHT22;64076;51.466;7.260;2023-10-19T06:40:13;24.00;46.80
75500;DHT22;64076;51.466;7.260;2023-10-19T06:42:43;24.00;46.90
75500;DHT22;64076;51.466;7.260;2023-10-19T06:45:09;23.90;46.90
75500;DHT22;64076;51.466;7.260;2023-10-19T06:47:35;24.00;46.90
75500;DHT22;64076;51.466;7.260;2023-10-19T06:50:05;23.90;47.00
75500;DHT22;64076;51.466;7.260;2023-10-19T06:52:34;24.00;47.00
75500;DHT22;64076;51.466;7.260;2023-10-19T06:55:02;24.00;47.00
75500;DHT22;64076;51.466;7.260;2023-10-19T06:57:28;24.00;47.00
75500;DHT22;64076;51.466;7.260;2023-10-19T06:59:54;24.00;46.90
75500;DHT22;64076;51.466;7.260;2023-10-19T07:02:19;24.10;47.00
75500;DHT22;64076;51.466;7.260;2023-10-19T07:04:46;24.10;47.00
75500;DHT22;64076;51.466;7.260;2023-10-19T07:07:15;24.10;46.80
75500;DHT22;64076;51.466;7.260;2023-10-19T07:09:40;24.10;46.80
75500;DHT22;64076;51.466;7.260;2023-10-19T07:12:07;24.10;46.90
75500;DHT22;64076;51.466;7.260;2023-10-19T07:14:33;24.10;46.90
75500;DHT22;64076;51.466;7.260;2023-10-19T07:16:59;24.10;46.90
75500;DHT22;64076;51.466;7.260;2023-10-19T07:19:25;24.20;46.90
75500;DHT22;64076;51.466;7.260;2023-10-19T07:21:50;24.20;46.90
75500;DHT22;64076;51.466;7.260;2023-10-19T07:24:23;24.20;47.00
75500;DHT22;64076;51.466;7.260;2023-10-19T07:26:50;24.20;47.00
75500;DHT22;64076;51.466;7.260;2023-10-19T07:29:33;24.20;47.00
75500;DHT22;64076;51.466;7.260;2023-10-19T07:32:02;24.20;47.00
75500;DHT22;64076;51.466;7.260;2023-10-19T07:34:31;24.20;47.10
75500;DHT22;64076;51.466;7.260;2023-10-19T07:36:58;24.20;47.10
75500;DHT22;64076;51.466;7.260;2023-10-19T07:39:26;24.20;47.00
75500;DHT22;64076;51.466;7.260;2023-10-19T07:41:55;24.30;47.00
75500;DHT22;64076;51.466;7.260;2023-10-19T07:44:20;24.30;47.10
75500;DHT22;64076;51.466;7.260;2023-10-19T07:46:46;24.30;47.10
75500;DHT22;64076;51.466;7.260;2023-10-19T07:49:12;24.30;47.00
75500;DHT22;64076;51.466;7.260;2023-10-19T07:51:44;24.40;47.10
75500;DHT22;64076;51.466;7.260;2023-10-19T07:54:09;24.40;47.10
75500;DHT22;64076;51.466;7.260;2023-10-19T07:56:35;24.40;47.10
75500;DHT22;64076;51.466;7.260;2023-10-19T07:59:01;24.40;47.10
75500;DHT22;64076;51.466;7.260;2023-10-19T08:01:27;24.40;47.20
75500;DHT22;64076;51.466;7.260;2023-10-19T08:03:53;24.40;47.30
75500;DHT22;64076;51.466;7.260;2023-10-19T08:06:19;24.40;47.50
75500;DHT22;64076;51.466;7.260;2023-10-19T08:08:44;24.30;47.70
75500;DHT22;64076;51.466;7.260;2023-10-19T08:11:11;24.30;47.80
75500;DHT22;64076;51.466;7.260;2023-10-19T08:13:38;24.20;48.00
75500;DHT22;64076;51.466;7.260;2023-10-19T08:16:05;24.20;48.50
75500;DHT22;64076;51.466;7.260;2023-10-19T08:18:32;24.00;48.80
75500;DHT22;64076;51.466;7.260;2023-10-19T08:21:00;23.90;49.30
75500;DHT22;64076;51.466;7.260;2023-10-19T08:23:27;23.80;49.60
75500;DHT22;64076;51.466;7.260;2023-10-19T08:25:53;23.70;49.50
75500;DHT22;64076;51.466;7.260;2023-10-19T08:28:21;23.80;49.30
75500;DHT22;64076;51.466;7.260;2023-10-19T08:30:47;23.90;49.10
75500;DHT22;64076;51.466;7.260;2023-10-19T08:33:23;24.00;48.90
75500;DHT22;64076;51.466;7.260;2023-10-19T08:35:52;24.10;48.70
75500;DHT22;64076;51.466;7.260;2023-10-19T08:38:20;24.20;48.60
75500;DHT22;64076;51.466;7.260;2023-10-19T08:40:47;24.30;48.50
75500;DHT22;64076;51.466;7.260;2023-10-19T08:43:14;24.30;48.40
75500;DHT22;64076;51.466;7.260;2023-10-19T08:45:43;24.30;48.40
75500;DHT22;64076;51.466;7.260;2023-10-19T08:48:09;24.40;48.30
75500;DHT22;64076;51.466;7.260;2023-10-19T08:50:34;24.40;48.30
75500;DHT22;64076;51.466;7.260;2023-10-19T08:53:02;24.40;48.30
75500;DHT22;64076;51.466;7.260;2023-10-19T08:55:31;24.40;48.30
75500;DHT22;64076;51.466;7.260;2023-10-19T08:57:59;24.40;48.30
75500;DHT22;64076;51.466;7.260;2023-10-19T09:00:26;24.40;48.30
75500;DHT22;64076;51.466;7.260;2023-10-19T09:02:53;24.40;48.30
75500;DHT22;64076;51.466;7.260;2023-10-19T09:05:19;24.50;48.30
75500;DHT22;64076;51.466;7.260;2023-10-19T09:07:52;24.50;48.40
75500;DHT22;64076;51.466;7.260;2023-10-19T09:10:24;24.50;48.40
75500;DHT22;64076;51.466;7.260;2023-10-19T09:13:02;24.50;48.30
75500;DHT22;64076;51.466;7.260;2023-10-19T09:15:28;24.50;48.50
75500;DHT22;64076;51.466;7.260;2023-10-19T09:17:58;24.60;48.40
75500;DHT22;64076;51.466;7.260;2023-10-19T09:20:23;24.50;48.40
75500;DHT22;64076;51.466;7.260;2023-10-19T09:22:55;24.60;48.50
75500;DHT22;64076;51.466;7.260;2023-10-19T09:25:23;24.60;48.60
75500;DHT22;64076;51.466;7.260;2023-10-19T09:27:49;24.70;48.50
75500;DHT22;64076;51.466;7.260;2023-10-19T09:30:15;24.70;48.50
75500;DHT22;64076;51.466;7.260;2023-10-19T09:32:47;24.70;48.50
75500;DHT22;64076;51.466;7.260;2023-10-19T09:35:17;24.70;48.40
75500;DHT22;64076;51.466;7.260;2023-10-19T09:37:44;24.70;48.40
75500;DHT22;64076;51.466;7.260;2023-10-19T09:40:11;24.70;48.40
75500;DHT22;64076;51.466;7.260;2023-10-19T09:42:43;24.80;48.40
75500;DHT22;64076;51.466;7.260;2023-10-19T09:45:18;24.80;48.40
75500;DHT22;64076;51.466;7.260;2023-10-19T09:47:49;24.70;48.50
75500;DHT22;64076;51.466;7.260;2023-10-19T09:50:16;24.70;48.50
75500;DHT22;64076;51.466;7.260;2023-10-19T09:52:41;24.70;48.50
75500;DHT22;64076;51.466;7.260;2023-10-19T09:55:22;24.80;48.50
75500;DHT22;64076;51.466;7.260;2023-10-19T09:57:55;24.80;48.50
75500;DHT22;64076;51.466;7.260;2023-10-19T10:00:21;24.80;48.50
75500;DHT22;64076;51.466;7.260;2023-10-19T10:02:52;24.80;48.40
75500;DHT22;64076;51.466;7.260;2023-10-19T10:10:50;24.90;48.40
75500;DHT22;64076;51.466;7.260;2023-10-19T10:15:56;24.90;48.40
75500;DHT22;64076;51.466;7.260;2023-10-19T10:18:33;24.90;48.20
75500;DHT22;64076;51.466;7.260;2023-10-19T10:21:20;24.90;48.20
75500;DHT22;64076;51.466;7.260;2023-10-19T10:23:52;25.00;48.20
75500;DHT22;64076;51.466;7.260;2023-10-19T10:26:19;25.00;48.10
75500;DHT22;64076;51.466;7.260;2023-10-19T10:28:49;25.00;48.10
75500;DHT22;64076;51.466;7.260;2023-10-19T10:31:35;25.00;48.10
75500;DHT22;64076;51.466;7.260;2023-10-19T10:34:08;25.00;48.10
75500;DHT22;64076;51.466;7.260;2023-10-19T10:37:00;25.00;48.00
75500;DHT22;64076;51.466;7.260;2023-10-19T10:39:29;25.00;48.10
75500;DHT22;64076;51.466;7.260;2023-10-19T10:42:01;25.00;48.00
75500;DHT22;64076;51.466;7.260;2023-10-19T10:44:41;25.00;48.00
75500;DHT22;64076;51.466;7.260;2023-10-19T10:47:09;25.00;48.00
75500;DHT22;64076;51.466;7.260;2023-10-19T10:49:50;25.00;47.90
75500;DHT22;64076;51.466;7.260;2023-10-19T10:52:35;25.00;47.90
75500;DHT22;64076;51.466;7.260;2023-10-19T10:55:11;25.00;48.00
75500;DHT22;64076;51.466;7.260;2023-10-19T10:57:41;25.00;48.00
75500;DHT22;64076;51.466;7.260;2023-10-19T11:00:12;25.00;47.90
75500;DHT22;64076;51.466;7.260;2023-10-19T11:02:41;25.00;47.90
75500;DHT22;64076;51.466;7.260;2023-10-19T11:05:15;25.10;47.80
75500;DHT22;64076;51.466;7.260;2023-10-19T11:08:05;25.10;47.80
75500;DHT22;64076;51.466;7.260;2023-10-19T11:10:32;25.10;47.70
75500;DHT22;64076;51.466;7.260;2023-10-19T11:13:06;25.10;47.50
75500;DHT22;64076;51.466;7.260;2023-10-19T11:15:36;25.10;47.50
75500;DHT22;64076;51.466;7.260;2023-10-19T11:18:07;25.10;47.40
75500;DHT22;64076;51.466;7.260;2023-10-19T11:20:33;25.10;47.40
75500;DHT22;64076;51.466;7.260;2023-10-19T11:22:59;25.10;47.30
75500;DHT22;64076;51.466;7.260;2023-10-19T11:25:29;25.10;47.30
75500;DHT22;64076;51.466;7.260;2023-10-19T11:27:59;25.10;47.20
75500;DHT22;64076;51.466;7.260;2023-10-19T11:30:27;25.10;47.10
75500;DHT22;64076;51.466;7.260;2023-10-19T11:32:54;25.10;47.00
75500;DHT22;64076;51.466;7.260;2023-10-19T11:35:26;25.10;47.00
75500;DHT22;64076;51.466;7.260;2023-10-19T11:37:54;25.10;46.90
75500;DHT22;64076;51.466;7.260;2023-10-19T11:40:21;25.10;46.90
75500;DHT22;64076;51.466;7.260;2023-10-19T11:42:47;25.10;46.90
75500;DHT22;64076;51.466;7.260;2023-10-19T11:45:13;25.10;46.80
75500;DHT22;64076;51.466;7.260;2023-10-19T11:47:47;25.20;46.80
75500;DHT22;64076;51.466;7.260;2023-10-19T11:50:13;25.10;46.80
75500;DHT22;64076;51.466;7.260;2023-10-19T11:52:41;25.10;46.80
75500;DHT22;64076;51.466;7.260;2023-10-19T11:55:08;25.10;46.90
75500;DHT22;64076;51.466;7.260;2023-10-19T11:57:34;25.20;47.00
75500;DHT22;64076;51.466;7.260;2023-10-19T12:00:02;25.10;47.10
75500;DHT22;64076;51.466;7.260;2023-10-19T12:02:34;25.10;47.00
75500;DHT22;64076;51.466;7.260;2023-10-19T12:05:01;25.20;47.00
75500;DHT22;64076;51.466;7.260;2023-10-19T12:07:27;25.20;47.10
75500;DHT22;64076;51.466;7.260;2023-10-19T12:09:53;25.20;47.00
75500;DHT22;64076;51.466;7.260;2023-10-19T12:12:21;25.20;46.90
75500;DHT22;64076;51.466;7.260;2023-10-19T12:14:47;25.20;47.00
75500;DHT22;64076;51.466;7.260;2023-10-19T12:17:13;25.20;47.00
75500;DHT22;64076;51.466;7.260;2023-10-19T12:19:38;25.20;47.00
75500;DHT22;64076;51.466;7.260;2023-10-19T12:22:04;25.20;47.00
75500;DHT22;64076;51.466;7.260;2023-10-19T12:24:29;25.20;46.90
75500;DHT22;64076;51.466;7.260;2023-10-19T12:26:55;25.20;46.80
75500;DHT22;64076;51.466;7.260;2023-10-19T12:29:21;25.30;46.80
75500;DHT22;64076;51.466;7.260;2023-10-19T12:31:47;25.30;46.70
75500;DHT22;64076;51.466;7.260;2023-10-19T12:34:13;25.30;46.60
75500;DHT22;64076;51.466;7.260;2023-10-19T12:36:39;25.40;46.60
75500;DHT22;64076;51.466;7.260;2023-10-19T12:39:06;25.40;46.50
75500;DHT22;64076;51.466;7.260;2023-10-19T12:41:32;25.40;46.50
75500;DHT22;64076;51.466;7.260;2023-10-19T12:43:58;25.40;46.60
75500;DHT22;64076;51.466;7.260;2023-10-19T12:46:26;25.40;46.60
75500;DHT22;64076;51.466;7.260;2023-10-19T12:48:55;25.40;46.50
75500;DHT22;64076;51.466;7.260;2023-10-19T12:51:22;25.40;46.60
75500;DHT22;64076;51.466;7.260;2023-10-19T12:53:53;25.40;46.60
75500;DHT22;64076;51.466;7.260;2023-10-19T12:56:20;25.50;46.60
75500;DHT22;64076;51.466;7.260;2023-10-19T12:58:46;25.50;46.70
75500;DHT22;64076;51.466;7.260;2023-10-19T13:01:14;25.40;46.70
75500;DHT22;64076;51.466;7.260;2023-10-19T13:03:45;25.40;46.70
75500;DHT22;64076;51.466;7.260;2023-10-19T13:06:12;25.40;46.70
75500;DHT22;64076;51.466;7.260;2023-10-19T13:08:38;25.40;46.70
75500;DHT22;64076;51.466;7.260;2023-10-19T13:11:09;25.40;46.80
75500;DHT22;64076;51.466;7.260;2023-10-19T13:13:40;25.40;46.70
75500;DHT22;64076;51.466;7.260;2023-10-19T13:16:06;25.40;46.70
75500;DHT22;64076;51.466;7.260;2023-10-19T13:18:35;25.40;46.70
75500;DHT22;64076;51.466;7.260;2023-10-19T13:21:01;25.40;46.70
75500;DHT22;64076;51.466;7.260;2023-10-19T13:23:31;25.40;46.70
75500;DHT22;64076;51.466;7.260;2023-10-19T13:25:58;25.40;46.70
75500;DHT22;64076;51.466;7.260;2023-10-19T13:28:35;25.40;46.70
75500;DHT22;64076;51.466;7.260;2023-10-19T13:31:03;25.40;46.70
75500;DHT22;64076;51.466;7.260;2023-10-19T13:33:29;25.40;46.70
75500;DHT22;64076;51.466;7.260;2023-10-19T13:35:58;25.40;46.80
75500;DHT22;64076;51.466;7.260;2023-10-19T13:38:23;25.40;46.80
75500;DHT22;64076;51.466;7.260;2023-10-19T13:40:49;25.40;46.80
75500;DHT22;64076;51.466;7.260;2023-10-19T13:43:16;25.40;46.80
75500;DHT22;64076;51.466;7.260;2023-10-19T13:45:44;25.40;46.90
75500;DHT22;64076;51.466;7.260;2023-10-19T13:48:10;25.40;46.90
75500;DHT22;64076;51.466;7.260;2023-10-19T13:50:41;25.40;47.00
75500;DHT22;64076;51.466;7.260;2023-10-19T13:53:08;25.40;47.10
75500;DHT22;64076;51.466;7.260;2023-10-19T13:55:35;25.40;47.20
75500;DHT22;64076;51.466;7.260;2023-10-19T13:58:01;25.40;47.20
75500;DHT22;64076;51.466;7.260;2023-10-19T14:00:27;25.40;47.20
75500;DHT22;64076;51.466;7.260;2023-10-19T14:03:01;25.40;47.30
75500;DHT22;64076;51.466;7.260;2023-10-19T14:05:28;25.40;47.40
75500;DHT22;64076;51.466;7.260;2023-10-19T14:07:54;25.40;47.50
75500;DHT22;64076;51.466;7.260;2023-10-19T14:10:20;25.40;47.60
75500;DHT22;64076;51.466;7.260;2023-10-19T14:12:48;25.40;47.60
75500;DHT22;64076;51.466;7.260;2023-10-19T14:15:19;25.40;47.80
75500;DHT22;64076;51.466;7.260;2023-10-19T14:17:46;25.50;47.80
75500;DHT22;64076;51.466;7.260;2023-10-19T14:20:13;25.40;47.80
75500;DHT22;64076;51.466;7.260;2023-10-19T14:22:46;25.40;48.00
75500;DHT22;64076;51.466;7.260;2023-10-19T14:25:13;25.40;48.10
75500;DHT22;64076;51.466;7.260;2023-10-19T14:27:43;25.40;48.20
75500;DHT22;64076;51.466;7.260;2023-10-19T14:30:14;25.40;48.30
75500;DHT22;64076;51.466;7.260;2023-10-19T14:32:41;25.40;48.40
75500;DHT22;64076;51.466;7.260;2023-10-19T14:35:10;25.40;48.50
75500;DHT22;64076;51.466;7.260;2023-10-19T14:37:44;25.40;48.50
75500;DHT22;64076;51.466;7.260;2023-10-19T14:40:12;25.40;48.50
75500;DHT22;64076;51.466;7.260;2023-10-19T14:42:42;25.40;48.60
75500;DHT22;64076;51.466;7.260;2023-10-19T14:45:17;25.40;48.70
75500;DHT22;64076;51.466;7.260;2023-10-19T14:47:47;25.40;48.80
75500;DHT22;64076;51.466;7.260;2023-10-19T14:50:14;25.40;48.80
75500;DHT22;64076;51.466;7.260;2023-10-19T14:52:41;25.40;48.80
75500;DHT22;64076;51.466;7.260;2023-10-19T14:55:07;25.40;48.90
75500;DHT22;64076;51.466;7.260;2023-10-19T14:57:36;25.40;48.90
75500;DHT22;64076;51.466;7.260;2023-10-19T15:00:06;25.40;48.90
75500;DHT22;64076;51.466;7.260;2023-10-19T15:02:56;25.40;49.00
75500;DHT22;64076;51.466;7.260;2023-10-19T15:05:27;25.40;49.00
75500;DHT22;64076;51.466;7.260;2023-10-19T15:07:54;25.40;49.10
75500;DHT22;64076;51.466;7.260;2023-10-19T15:10:25;25.40;49.10
75500;DHT22;64076;51.466;7.260;2023-10-19T15:12:52;25.40;49.30
75500;DHT22;64076;51.466;7.260;2023-10-19T15:15:17;25.40;49.30
75500;DHT22;64076;51.466;7.260;2023-10-19T15:17:44;25.40;49.30
75500;DHT22;64076;51.466;7.260;2023-10-19T15:20:13;25.40;49.30
75500;DHT22;64076;51.466;7.260;2023-10-19T15:22:43;25.40;49.40
75500;DHT22;64076;51.466;7.260;2023-10-19T15:25:11;25.40;49.40
75500;DHT22;64076;51.466;7.260;2023-10-19T15:27:38;25.40;49.40
75500;DHT22;64076;51.466;7.260;2023-10-19T15:30:05;25.40;49.50
75500;DHT22;64076;51.466;7.260;2023-10-19T15:32:32;25.40;49.40
75500;DHT22;64076;51.466;7.260;2023-10-19T15:34:57;25.40;49.30
75500;DHT22;64076;51.466;7.260;2023-10-19T15:37:23;25.40;49.30
75500;DHT22;64076;51.466;7.260;2023-10-19T15:39:52;25.40;49.20
75500;DHT22;64076;51.466;7.260;2023-10-19T15:42:18;25.40;49.30
75500;DHT22;64076;51.466;7.260;2023-10-19T15:44:46;25.40;49.20
75500;DHT22;64076;51.466;7.260;2023-10-19T15:47:12;25.40;49.30
75500;DHT22;64076;51.466;7.260;2023-10-19T15:49:49;25.40;49.40
75500;DHT22;64076;51.466;7.260;2023-10-19T15:52:21;25.40;49.40